Thursday, November 23, 2017, 2:10 AM EST
Back to Local

KBID, Block Island, Block Island State Airport

Location: Block Island, RI, United States Lat: 41.167
Local Time: 2:10 AM EST ( 7:10 GMT) Lon: -71.567
Time Zone: US/Eastern Elev: 108 ft

Show me the last for .
Show Decoded

2017-11-23 01:56 METAR KBID 230656Z AUTO 31009G16KT 10SM SCT034 03/M03 A3000 RMK AO2 SLP163
                 T00331033 =
2017-11-23 00:56 METAR KBID 230556Z AUTO 32009G17KT 10SM BKN034 04/M03 A2999 RMK AO2 SLP160
                 T00391028 10061 20039 51015 =
2017-11-22 23:56 METAR KBID 230456Z AUTO 32010G16KT 10SM BKN036 04/M02 A2999 RMK AO2 SLP158
                 T00391022 =
2017-11-22 22:56 METAR KBID 230356Z AUTO 32012G20KT 10SM BKN040 04/M02 A2998 RMK AO2 SLP155
                 T00441017 401440044 =
2017-11-22 21:56 METAR KBID 230256Z AUTO 31014G23KT 10SM CLR 04/M01 A2995 RMK AO2 SLP145
                 T00441011 51026 =
2017-11-22 20:56 METAR KBID 230156Z AUTO 32014G25KT 10SM BKN030 05/M01 A2993 RMK AO2 SLP139
                 T00501011 =
2017-11-22 20:44 METAR KBID 230144Z AUTO 32011G24KT 10SM BKN030 05/M01 A2993 RMK AO2 =
2017-11-22 19:56 METAR KBID 230056Z AUTO 33013G22KT 10SM OVC024 06/01 A2991 RMK AO2 PK WND
                 32028/0017 SLP132 T00610011 =
2017-11-22 19:38 METAR KBID 230038Z AUTO 33015G27KT 10SM BKN024 06/02 A2990 RMK AO2 PK WND
                 32028/0017 =
2017-11-22 19:23 METAR KBID 230023Z AUTO 33016G28KT 10SM SCT029 06/02 A2990 RMK AO2 PK WND
                 32028/0017 =
2017-11-22 18:56 METAR KBID 222356Z AUTO 33019G26KT 10SM BKN027 06/02 A2987 RMK AO2 PK WND
                 34029/2330 SLP120 60006 T00610017 10122 20061 51025 =
2017-11-22 18:40 METAR KBID 222340Z AUTO 33018G28KT 10SM FEW023 BKN029 07/02 A2988 RMK AO2 PK WND
                 34029/2330 =
2017-11-22 18:31 METAR KBID 222331Z AUTO 33016G29KT 10SM FEW021 SCT027 07/02 A2987 RMK AO2 PK WND
                 34029/2330 =
2017-11-22 17:56 METAR KBID 222256Z AUTO 32016G26KT 10SM OVC017 07/04 A2985 RMK AO2 PK WND
                 32026/2254 SLP112 T00720044 =
2017-11-22 17:35 METAR KBID 222235Z AUTO 33015G23KT 10SM OVC015 08/05 A2984 RMK AO2 =
2017-11-22 16:56 METAR KBID 222156Z AUTO 32012G22KT 10SM OVC011 08/07 A2982 RMK AO2 RAE02 SLP102
                 P0000 T00830067 =
2017-11-22 15:56 METAR KBID 222056Z AUTO 33012G20KT 10SM -RA BKN011 BKN016 OVC038 09/08 A2980 RMK
                 AO2 SLP094 P0002 60006 T00890078 53002 =
2017-11-22 15:52 METAR KBID 222052Z AUTO 33014G20KT 10SM -RA BKN011 BKN016 OVC095 09/08 A2979 RMK
                 AO2 P0002 =
2017-11-22 15:44 METAR KBID 222044Z AUTO 33014KT 10SM -RA SCT011 BKN032 OVC075 09/08 A2979 RMK
                 AO2 P0002 =
2017-11-22 15:26 METAR KBID 222026Z AUTO 34012G17KT 10SM -RA SCT007 BKN029 09/08 A2979 RMK AO2
                 P0002 =
2017-11-22 15:19 METAR KBID 222019Z AUTO 34011G19KT 9SM -RA SCT005 BKN008 OVC029 09/08 A2979 RMK
                 AO2 CIG 006V013 P0002 =
2017-11-22 15:12 METAR KBID 222012Z AUTO 34013G21KT 5SM -RA BR BKN005 OVC026 09/08 A2979 RMK AO2
                 CIG 003V008 P0001 =
2017-11-22 15:05 METAR KBID 222005Z AUTO 34013G21KT 2 1/2SM RA BR BKN005 OVC024 09/09 A2979 RMK
                 AO2 CIG 003V009 P0001 =
2017-11-22 14:56 METAR KBID 221956Z AUTO 33009G19KT 1 3/4SM -RA BR OVC005 09/09 A2979 RMK AO2
                 WSHFT 1927 RAB14 CIG 002V009 SLP093 P0003 T00940094 =
2017-11-22 14:41 METAR KBID 221941Z AUTO 32014G22KT 2SM -RA BR OVC005 10/09 A2978 RMK AO2 WSHFT
                 1927 RAB14 CIG 002V009 P0001 =
2017-11-22 14:39 METAR KBID 221939Z AUTO 32015G20KT 1 3/4SM -RA BR OVC005 10/09 A2978 RMK AO2
                 RAB14 CIG 002V007 P0001 =
2017-11-22 14:29 METAR KBID 221929Z AUTO 33012G20KT 2 1/2SM -RA BR OVC005 12/12 A2978 RMK AO2 VIS
                 2V4 RAB14 CIG 002V009 P0001 =
2017-11-22 14:13 METAR KBID 221913Z AUTO 24003KT 1 1/4SM BR BKN005 OVC010 12/12 A2977 RMK AO2 CIG
                 003V007 =
2017-11-22 14:04 METAR KBID 221904Z AUTO 22003KT 2 1/2SM BR SCT006 OVC009 12/12 A2978 RMK AO2 VIS
                 1 3/4V5 =
2017-11-22 13:56 METAR KBID 221856Z AUTO 20003KT 8SM BKN004 OVC011 12/12 A2978 RMK AO2 RAE13 CIG
                 003V007 SLP088 P0001 T01220117 =
2017-11-22 12:56 METAR KBID 221756Z AUTO 16004KT 7SM -RA BKN004 BKN008 OVC060 12/12 A2980 RMK AO2
                 SLP096 P0005 60110 T01170117 10122 20117 58022 =
2017-11-22 12:06 METAR KBID 221706Z AUTO 16005KT 7SM -RA BKN004 OVC060 12/12 A2983 RMK AO2 P0001
                 =
2017-11-22 11:56 METAR KBID 221656Z AUTO 17006KT 7SM -RA FEW007 SCT041 OVC060 12/12 A2984 RMK AO2
                 SLP110 P0009 T01170117 =
2017-11-22 11:53 METAR KBID 221653Z AUTO 17006KT 7SM -RA FEW007 SCT041 OVC060 12/12 A2984 RMK AO2
                 P0009 =
2017-11-22 10:56 METAR KBID 221556Z AUTO 13005KT 4SM -RA BR SCT048 OVC060 12/12 A2987 RMK AO2
                 SLP118 P0014 T01170117 =
2017-11-22 09:56 METAR KBID 221456Z AUTO 18005KT 5SM -RA BR OVC049 12/12 A2991 RMK AO2 SLP133
                 P0019 60082 T01170117 =
2017-11-22 08:56 METAR KBID 221356Z AUTO 17006KT 4SM -RA BR FEW005 OVC040 12/12 A2994 RMK AO2
                 SLP142 P0020 T01170117 =
2017-11-22 08:08 METAR KBID 221308Z AUTO 23008KT 3SM -RA BR FEW004 BKN043 OVC055 12/12 A2994 RMK
                 AO2 LTG DSNT S P0004 =
2017-11-22 07:56 METAR KBID 221256Z AUTO 24008KT 4SM -RA BR FEW019 BKN034 OVC060 12/12 RMK AO2
                 LTG DSNT S SLPNO P0043 T01170117 $ =
2017-11-22 07:45 METAR KBID 221245Z AUTO 25011KT 2 1/2SM RA BR FEW006 BKN030 OVC043 12/12 A2995
                 RMK AO2 P0040 =
2017-11-22 07:27 METAR KBID 221227Z AUTO 27009G14KT 2 1/2SM RA BR FEW006 BKN026 OVC040 12/12
                 A2994 RMK AO2 VIS 1 3/4V4 P0023 =
2017-11-22 07:20 METAR KBID 221220Z AUTO 26008KT 3SM +RA BR FEW006 BKN020 OVC025 12/12 A2996 RMK
                 AO2 P0017 =
2017-11-22 07:12 METAR KBID 221212Z AUTO 24008G17KT 2 1/2SM -RA BR FEW004 BKN018 OVC025 12/12
                 A2995 RMK AO2 VIS 1 3/4V5 P0010 =
2017-11-22 06:56 METAR KBID 221156Z AUTO 31012G16KT 6SM -RA BR OVC018 12/11 A2993 RMK AO2 WSHFT
                 1101 LTG DSNT N AND NE RAB21 SLP138 P0018 60018 70018 T01220111 10144 20122
                 56026 =
2017-11-22 06:28 METAR KBID 221128Z AUTO 28011G14KT 5SM +RA BR SCT011 BKN016 OVC060 13/12 A2995
                 RMK AO2 WSHFT 1101 RAB21 P0008 =
2017-11-22 06:15 METAR KBID 221115Z AUTO 27012G20KT 250V310 10SM FEW009 BKN060 OVC085 14/13 A2995
                 RMK AO2 WSHFT 1101 LTG DSNT W =
2017-11-22 05:56 METAR KBID 221056Z AUTO 18014KT 10SM OVC085 14/13 A2993 RMK AO2 LTG DSNT SW
                 SLP138 T01440133 =
2017-11-22 04:56 METAR KBID 220956Z AUTO 20006KT 10SM SCT018 14/12 A2998 RMK AO2 RAE06 SLP155
                 P0000 T01440122 =
2017-11-22 04:33 METAR KBID 220933Z AUTO 20005KT 10SM BKN022 BKN048 BKN095 14/12 A2999 RMK AO2
                 RAE06 P0000 =
2017-11-22 03:56 METAR KBID 220856Z AUTO 18004KT 10SM -RA FEW020 BKN055 OVC070 13/12 A3000 RMK
                 AO2 RAB27 SLP164 P0000 60000 T01330117 58013 =
2017-11-22 02:56 METAR KBID 220756Z AUTO 26006KT 10SM OVC055 13/12 A3002 RMK AO2 SLP170 T01330117
                 =

Support USWX by starting your Amazon purchase here.